Tiempo atmosférico en la estación meteorológica de Rascafría, Madrid (1159 m.)



Fecha
DESCASC
Temp. máxima en grados centígrados (hora)
DESCASC
Temp. mínima en grados centígrados (hora)
DESCASC
Temp. media en grados centígrados
DESCASC
Racha de viento máxima en m/sg (hora)
DESCASC
Velocidad máxima media en intervalos de 10 minutos(hora)
DESCASC
Precipitaciones diarias en mm
DESCASC
Precipitaciones de 00:00 a 06:00 en mm
DESCASC
Precipitaciones de 06:00 a 12:00 en mm
DESCASC
Precipitaciones de 12:00 a 18:00 en mm
DESCASC
Precipitaciones de 18:00 a 24:00 en mm
DESCASC
23-06-2019 28.5 (16:50) 7.1 (07:00) 17.8 9.44 (15:00) 3.89 (15:00) 0 0 0 0 0
22-06-2019 27.3 (16:50) 5.4 (06:00) 16.3 9.17 (14:10) 3.33 (14:00) 0 0 0 0 0
21-06-2019 23.3 (18:10) 7.3 (06:50) 15.3 7.78 (14:40) 2.78 (13:20) 0 0 0 0 0
20-06-2019 24 (16:50) 8.8 (00:00) 16.4 10.28 (21:40) 3.33 (19:50) 0 0 0 0 0
19-06-2019 24.5 (17:20) 10.2 (00:00) 17.3 5.28 (17:00) 2.22 (17:00) 0 0 0 0 0
18-06-2019 26.3 (16:40) 8 (00:00) 17.1 10 (12:50) 4.17 (12:10) 0 0 0 0 0
17-06-2019 27.3 (17:00) 4.9 (00:00) 16.1 8.33 (17:30) 3.06 (12:00) 0 0 0 0 0
16-06-2019 26.7 (17:30) 2.4 (00:00) 14.6 6.67 (15:10) 3.06 (15:50) 0 0 0 0 0
15-06-2019 22.6 (18:20) 5.1 (00:00) 13.9 10.28 (00:50) 3.89 (01:00) 0 0 0 0 0
14-06-2019 22.9 (17:00) 3.4 (00:00) 13.1 8.06 (14:10) 3.33 (14:30) 0 0 0 0 0
13-06-2019 23.7 (18:00) 0.6 (00:00) 12.2 10 (12:40) 3.33 (16:20) 0 0 0 0 0
12-06-2019 20.7 (19:50) -1 (-00:0) 9.9 8.06 (12:10) 2.78 (15:00) 0 0 0 0 0
11-06-2019 16 (17:50) 2.9 (00:00) 9.5 7.5 (14:40) 3.06 (16:10) 0 0 0 0 0
10-06-2019 21.1 (18:50) 7.7 (00:00) 14.4 7.78 (17:10) 3.06 (16:50) 0 0 0 0 0
09-06-2019 22.6 (16:30) 4.2 (00:00) 13.4 10.83 (19:10) 3.61 (22:40) 0 0 0 0 0
08-06-2019 23.3 (16:30) -0.3 (00:00) 11.5 8.89 (16:10) 3.89 (14:20) 0 0 0 0 0
07-06-2019 16.9 (19:00) 3.6 (00:00) 10.2 12.5 (06:00) 5.56 (04:30) 3.6 3.4 0.2 0 0
06-06-2019 19.5 (16:50) 1 (00:00) 10.3 12.78 (15:00) 4.44 (16:00) 0 0 0 0 0
05-06-2019 16 (19:10) 4.9 (00:00) 10.5 11.94 (03:40) 3.61 (03:40) 5.4 0 5 0.4 0
04-06-2019 25.8 (15:00) 7.2 (00:00) 16.5 10 (20:50) 3.61 (20:10) 0 0 0 0 0
03-06-2019 29.5 (16:50) 8.1 (00:00) 18.8 7.5 (18:30) 3.33 (14:00) 0 0 0 0 0
02-06-2019 29.7 (17:00) 7 (00:00) 18.4 7.22 (20:30) 2.78 (20:30) 0 0 0 0 0
01-06-2019 30.2 (17:50) 4.9 (00:00) 17.6 5.28 (17:30) 2.22 (17:30) 0 0 0 0 0
31-05-2019 29.2 (18:40) 4.5 (00:00) 16.9 5 (14:00) 1.94 (16:20) 0 0 0 0 0
30-05-2019 27.4 (18:20) 2.4 (00:00) 14.9 5 (15:30) 2.5 (14:30) 0 0 0 0 0
29-05-2019 22.3 (16:40) 2.3 (00:00) 12.3 8.89 (12:20) 3.61 (12:20) 0 0 0 0 0
28-05-2019 20.4 (17:10) 5.4 (00:00) 12.9 9.17 (17:40) 3.61 (13:00) 0 0 0 0 0
27-05-2019 23 (16:10) 5.7 (00:00) 14.3 8.33 (17:20) 3.33 (10:30) 0 0 0 0 0
26-05-2019 22.7 (18:30) 2.1 (00:00) 12.4 8.61 (15:10) 3.89 (15:10) 0 0 0 0 0

Gráficas

Temp. máximas Temp. mínimas Temp. medias Precipitaciones Rachas de viento máximas Velocidades máximas media en intervalos de 10 minutos

Datos horarios

Fecha y hora oficial Temperatura (ºC) Velocidad del viento (km/h) Dirección del viento Racha (km/h) Dirección de racha Precipitación (mm) Presión (hPa) Tendencia (hPa) Humedad (%)
2019-06-24 23:00:00 -- -- -- -- -- -- -- -- --
2019-06-24 22:00:00 17.7 2 Oeste 16 Sudoeste 0 -- -- 65
2019-06-24 21:00:00 20.5 5 Oeste 27 Oeste 0 -- -- 56
2019-06-24 20:00:00 23.7 9 Noroeste 26 Oeste 0 -- -- 49
2019-06-24 19:00:00 24.9 0 Calma 12 Sudoeste 0 -- -- 45
2019-06-24 18:00:00 24.2 3 Noroeste 12 Sur 0 -- -- 45
2019-06-24 17:00:00 23.8 4 Sur 22 Oeste 0 -- -- 38
2019-06-24 16:00:00 24.8 6 Nordeste 15 Norte 0 -- -- 38
2019-06-24 15:00:00 23.6 2 Noroeste 8 Norte 0 -- -- 43
2019-06-24 14:00:00 22.4 2 Norte 8 Nordeste 0 -- -- 48
2019-06-24 13:00:00 22.3 4 Nordeste 11 Este 0 -- -- 46
2019-06-24 12:00:00 20.2 2 Nordeste 5 Nordeste 0 -- -- 48
2019-06-24 11:00:00 18.2 0 Calma 2 Este 0 -- -- 63
2019-06-24 10:00:00 17.5 0 Calma 2 Este 0 -- -- 64
2019-06-24 09:00:00 15.3 0 Calma 2 Sudoeste 0 -- -- 73
2019-06-24 08:00:00 13.4 0 Calma 2 Oeste 0 -- -- 75
2019-06-24 07:00:00 13.3 0 Calma 4 Oeste 0 -- -- 69
2019-06-24 06:00:00 15.3 3 Sudeste 9 Sudeste 0 -- -- 61
2019-06-24 05:00:00 17.9 3 Nordeste 25 Sur 0 -- -- 51
2019-06-24 04:00:00 14.9 6 Sur 16 Sur 0 -- -- 59
2019-06-24 03:00:00 12.8 2 Oeste 6 Sudoeste 0 -- -- 69
2019-06-24 02:00:00 13.1 0 Calma 6 Sur 0 -- -- 68
2019-06-24 01:00:00 14.2 2 Sudoeste 6 Sur 0 -- -- 65
2019-06-24 00:00:00 13.9 0 Calma 5 Oeste 0 -- -- 65
2019-06-23 23:00:00 15.6 3 Sudoeste 5 Sur 0 -- -- 59
2019-06-23 22:00:00 18.1 0 Calma 4 Sur 0 -- -- 60
2019-06-23 21:00:00 20.7 2 Noroeste 5 Oeste 0 -- -- 57
2019-06-23 20:00:00 23.1 0 Calma 9 Oeste 0 -- -- 45
2019-06-23 19:00:00 25.6 0 Calma 15 Oeste 0 -- -- 35
2019-06-23 18:00:00 27.4 4 Oeste 29 Sur 0 -- -- 27
2019-06-23 17:00:00 28.3 10 Sur 31 Sur 0 -- -- 25
2019-06-23 16:00:00 27.5 9 Sur 34 Sur 0 -- -- 27
2019-06-23 15:00:00 26.9 14 Sur 34 Sur 0 -- -- 28
2019-06-23 14:00:00 26.2 10 Sur 33 Sur 0 -- -- 33
2019-06-23 13:00:00 25.9 9 Sur 28 Sudeste 0 -- -- 34
2019-06-23 12:00:00 23.7 6 Nordeste 12 Este 0 -- -- 44
2019-06-23 11:00:00 21.9 4 Nordeste 9 Este 0 -- -- 48
2019-06-23 10:00:00 19.9 2 Este 6 Sudeste 0 -- -- 48
2019-06-23 09:00:00 16.1 0 Calma 4 Sur 0 -- -- 59
2019-06-23 08:00:00 9.9 0 Calma 5 Sur 0 -- -- 81
2019-06-23 07:00:00 7.1 2 Sudoeste 7 Sur 0 -- -- 84
2019-06-23 06:00:00 7.4 3 Oeste 10 Sudeste 0 -- -- 81
2019-06-23 05:00:00 7.2 2 Oeste 6 Sur 0 -- -- 82
2019-06-23 04:00:00 8 2 Oeste 8 Sur 0 -- -- 79
2019-06-23 03:00:00 8.5 2 Sudoeste 6 Sur 0 -- -- 76
2019-06-23 02:00:00 9 0 Calma 5 Sudoeste 0 -- -- 74
2019-06-23 01:00:00 10.2 0 Calma 5 Oeste 0 -- -- 69
2019-06-23 00:00:00 11.5 0 Calma 5 Sudoeste 0 -- -- 66
2019-06-22 23:00:00 13.2 3 Sudoeste 9 Sur 0 -- -- 59
2019-06-22 22:00:00 15.7 0 Calma 5 Oeste 0 -- -- 55
2019-06-22 21:00:00 21.2 0 Calma 12 Sur 0 -- -- 47
2019-06-22 20:00:00 25.4 3 Oeste 14 Sur 0 -- -- 29
2019-06-22 19:00:00 26 5 Sudoeste 19 Sur 0 -- -- 29
2019-06-22 18:00:00 26.8 7 Sur 25 Sur 0 -- -- 29
2019-06-22 17:00:00 27.3 8 Sur 24 Sur 0 -- -- 27
2019-06-22 16:00:00 25.4 5 Sudoeste 20 Sur 0 -- -- 34
2019-06-22 15:00:00 25.8 8 Sur 33 Sur 0 -- -- 30
2019-06-22 14:00:00 25.3 12 Sur 24 Sur 0 -- -- 37
2019-06-22 13:00:00 24.3 8 Sudeste 20 Sudeste 0 -- -- 35
2019-06-22 12:00:00 21.8 5 Este 11 Este 0 -- -- 53
2019-06-22 11:00:00 19.5 5 Nordeste 8 Este 0 -- -- 56
2019-06-22 10:00:00 17.1 2 Sudeste 4 Sudeste 0 -- -- 54
2019-06-22 09:00:00 12.8 0 Calma 6 Sur 0 -- -- 74
2019-06-22 08:00:00 8.7 0 Calma 3 Oeste 0 -- -- 90
2019-06-22 07:00:00 5.6 0 Calma 4 Noroeste 0 -- -- 93
2019-06-22 06:00:00 5.4 0 Calma 5 Oeste 0 -- -- 93
2019-06-22 05:00:00 6.1 0 Calma 6 Sudeste 0 -- -- 90
2019-06-22 04:00:00 6.6 0 Calma 4 Oeste 0 -- -- 89
2019-06-22 03:00:00 7.3 2 Oeste 4 Sudoeste 0 -- -- 87
2019-06-22 02:00:00 7.8 2 Oeste 7 Sur 0 -- -- 83
2019-06-22 01:00:00 8.7 0 Calma 4 Oeste 0 -- -- 81
2019-06-22 00:00:00 9.9 2 Sudoeste 4 Sur 0 -- -- 76
2019-06-21 23:00:00 11.8 2 Sudoeste 6 Sur 0 -- -- 70
2019-06-21 22:00:00 14.4 2 Sudoeste 6 Noroeste 0 -- -- 61
2019-06-21 21:00:00 18.2 3 Oeste 14 Noroeste 0 -- -- 46
2019-06-21 20:00:00 22.5 3 Noroeste 23 Nordeste 0 -- -- 35
2019-06-21 19:00:00 22.9 5 Norte 21 Norte 0 -- -- 36
2019-06-21 18:00:00 23.1 6 Noroeste 20 Noroeste 0 -- -- 35
2019-06-21 17:00:00 23 8 Oeste 19 Oeste 0 -- -- 42
2019-06-21 16:00:00 21.2 7 Oeste 26 Norte 0 -- -- 50
2019-06-21 15:00:00 19.2 9 Noroeste 28 Noroeste 0 -- -- 55
2019-06-21 14:00:00 20.7 6 Norte 22 Norte 0 -- -- 50
2019-06-21 13:00:00 19 4 Oeste 18 Noroeste 0 -- -- 55
2019-06-21 12:00:00 20.4 4 Oeste 15 Oeste 0 -- -- 50
2019-06-21 11:00:00 20.5 4 Sudeste 13 Nordeste 0 -- -- 46
2019-06-21 10:00:00 18 2 Este 7 Este 0 -- -- 57
2019-06-21 09:00:00 14.6 0 Calma 4 Este 0 -- -- 68
2019-06-21 08:00:00 10.2 2 Sudeste 4 Sur 0 -- -- 83
2019-06-21 07:00:00 7.3 3 Oeste 5 Oeste 0 -- -- 92
2019-06-21 06:00:00 8.1 2 Oeste 9 Noroeste 0 -- -- 90
2019-06-21 05:00:00 8.8 2 Oeste 5 Oeste 0 -- -- 87
2019-06-21 04:00:00 11 2 Sudeste 14 Oeste 0 -- -- 81
2019-06-21 03:00:00 13.7 5 Oeste 15 Oeste 0 -- -- 73
2019-06-21 02:00:00 14.1 6 Oeste 17 Sur 0 -- -- 72
2019-06-21 01:00:00 13 2 Este 12 Nordeste 0 -- -- 71
2019-06-21 00:00:00 13.8 0 Calma 15 Sudoeste 0 -- -- 71
2019-06-20 23:00:00 16.1 4 Sur 23 Sudoeste 0 -- -- 61
2019-06-20 22:00:00 17.1 7 Oeste 37 Oeste 0 -- -- 58
2019-06-20 21:00:00 18.9 5 Oeste 20 Oeste 0 -- -- 49
2019-06-20 20:00:00 19.8 9 Oeste 26 Oeste 0 -- -- 49
2019-06-20 19:00:00 22.6 3 Oeste 25 Oeste 0 -- -- 44
2019-06-20 18:00:00 23.1 8 Oeste 29 Oeste 0 -- -- 43
2019-06-20 17:00:00 23.8 5 Sur 14 Sur 0 -- -- 37
2019-06-20 16:00:00 22.3 0 Calma 13 Sudeste 0 -- -- 41
2019-06-20 15:00:00 23.2 3 Nordeste 9 Nordeste 0 -- -- 44
2019-06-20 14:00:00 20.4 3 Norte 9 Norte 0 -- -- 48
2019-06-20 13:00:00 20.6 3 Este 11 Nordeste 0 -- -- 52
2019-06-20 12:00:00 19.7 4 Nordeste 10 Este 0 -- -- 54
2019-06-20 11:00:00 18.5 2 Sudeste 6 Sudeste 0 -- -- 58
2019-06-20 10:00:00 16.6 2 Este 6 Este 0 -- -- 66
2019-06-20 09:00:00 15.5 3 Sudeste 4 Sudeste 0 -- -- 71
2019-06-20 08:00:00 10.1 0 Calma 3 Sudoeste 0 -- -- 90
2019-06-20 07:00:00 8.8 2 Sudoeste 5 Sur 0 -- -- 91
2019-06-20 06:00:00 9.7 0 Calma 4 Sudoeste 0 -- -- 89
2019-06-20 05:00:00 9.7 2 Oeste 9 Noroeste 0 -- -- 88
2019-06-20 04:00:00 10 0 Calma 6 Sudoeste 0 -- -- 85
2019-06-20 03:00:00 10.3 2 Oeste 9 Sur 0 -- -- 83
2019-06-20 02:00:00 11.2 3 Sudoeste 10 Oeste 0 -- -- 79
2019-06-20 01:00:00 12 0 Calma 9 Sur 0 -- -- 75
2019-06-20 00:00:00 13.1 3 Sudoeste 8 Sudeste 0 -- -- 71
2019-06-19 23:00:00 14.5 0 Calma 10 Oeste 0 -- -- 66
2019-06-19 22:00:00 17.6 3 Sur 19 Noroeste 0 -- -- 54
2019-06-19 21:00:00 19.1 5 Oeste 17 Norte 0 -- -- 50
2019-06-19 20:00:00 20.5 4 Noroeste 16 Noroeste 0 -- -- 46
2019-06-19 19:00:00 22.2 5 Oeste 19 Oeste 0 -- -- 42
2019-06-19 18:00:00 22.6 5 Oeste 18 Sur 0 -- -- 42
2019-06-19 17:00:00 23 8 Oeste 19 Oeste 0 -- -- 39
2019-06-19 16:00:00 22.9 5 Sudoeste 14 Sur 0 -- -- 44
2019-06-19 15:00:00 23.5 3 Sudoeste 16 Nordeste 0 -- -- 46
2019-06-19 14:00:00 22.8 5 Este 16 Nordeste 0 -- -- 44
2019-06-19 13:00:00 21.3 6 Sudeste 15 Este 0 -- -- 49
2019-06-19 12:00:00 19.9 6 Nordeste 13 Nordeste 0 -- -- 52
2019-06-19 11:00:00 20 5 Nordeste 13 Este 0 -- -- 52
2019-06-19 10:00:00 18.5 3 Nordeste 10 Sudeste 0 -- -- 56
2019-06-19 09:00:00 16.5 3 Este 9 Sur 0 -- -- 64
2019-06-19 08:00:00 12 0 Calma 9 Noroeste 0 -- -- 77
2019-06-19 07:00:00 10.2 3 Oeste 11 Oeste 0 -- -- 81
2019-06-19 06:00:00 12.9 5 Oeste 15 Oeste 0 -- -- 74
2019-06-19 05:00:00 13.5 6 Oeste 14 Oeste 0 -- -- 71
2019-06-19 04:00:00 11.6 4 Oeste 13 Noroeste 0 -- -- 74
2019-06-19 03:00:00 10.7 0 Calma 6 Oeste 0 -- -- 75
2019-06-19 02:00:00 11.5 2 Noroeste 9 Oeste 0 -- -- 72
2019-06-19 01:00:00 12 3 Noroeste 6 Oeste 0 -- -- 68
2019-06-19 00:00:00 12.8 3 Oeste 8 Oeste 0 -- -- 66
2019-06-18 23:00:00 14 3 Sudoeste 10 Oeste 0 -- -- 58
2019-06-18 22:00:00 16.4 2 Sudoeste 14 Oeste 0 -- -- 49
2019-06-18 21:00:00 19.7 5 Oeste 17 Oeste 0 -- -- 36
2019-06-18 20:00:00 24.3 5 Sudoeste 23 Sudoeste 0 -- -- 24
2019-06-18 19:00:00 -- -- -- -- -- -- -- -- --
2019-06-18 18:00:00 26.2 6 Sudoeste 33 Sudoeste 0 -- -- 18
2019-06-18 17:00:00 26.2 8 Sudoeste 34 Sudoeste 0 -- -- 17
2019-06-18 16:00:00 25.9 8 Sudoeste 33 Oeste 0 -- -- 20
2019-06-18 15:00:00 25.3 8 Sudoeste 32 Sur 0 -- -- 17
2019-06-18 14:00:00 24.6 10 Sur 32 Sudeste 0 -- -- 23
2019-06-18 13:00:00 23.6 13 Sur 36 Sudeste 0 -- -- 19
2019-06-18 12:00:00 23.5 14 Sur 30 Sudeste 0 -- -- 20
2019-06-18 11:00:00 23 8 Sur 24 Sudeste 0 -- -- 23
2019-06-18 10:00:00 16.1 0 Calma 5 Este 0 -- -- 58
2019-06-18 09:00:00 13.1 0 Calma 5 Sudoeste 0 -- -- 66
2019-06-18 08:00:00 10.9 0 Calma 7 Oeste 0 -- -- 66
2019-06-18 07:00:00 8.3 3 Sudoeste 9 Sur 0 -- -- 70
2019-06-18 06:00:00 8.3 0 Calma 5 Oeste 0 -- -- 70
2019-06-18 05:00:00 9.6 0 Calma 5 Sur 0 -- -- 65
2019-06-18 04:00:00 12.4 0 Calma 6 Sur 0 -- -- 58
2019-06-18 03:00:00 14.6 3 Oeste 10 Este 0 -- -- 47
2019-06-18 02:00:00 14.7 3 Oeste 7 Sur 0 -- -- 48
2019-06-18 01:00:00 15.2 0 Calma 10 Sudoeste 0 -- -- 51
2019-06-18 00:00:00 17.3 2 Sur 10 Sudeste 0 -- -- 42
2019-06-17 23:00:00 17.3 2 Sudeste 8 Sudoeste 0 -- -- 42
2019-06-17 22:00:00 18.2 2 Sudoeste 5 Sur 0 -- -- 43
2019-06-17 21:00:00 21 0 Calma 10 Sudoeste 0 -- -- 38
2019-06-17 20:00:00 24.3 3 Oeste 24 Sur 0 -- -- 26
2019-06-17 19:00:00 26.9 6 Sur 21 Sur 0 -- -- 21
2019-06-17 18:00:00 27.2 6 Sur 30 Sudeste 0 -- -- 18
2019-06-17 17:00:00 27.3 7 Sur 21 Oeste 0 -- -- 21
2019-06-17 16:00:00 26.7 6 Sur 26 Sudeste 0 -- -- 20
2019-06-17 15:00:00 26.3 8 Sur 23 Sur 0 -- -- 23
2019-06-17 14:00:00 25.5 9 Sur 24 Sur 0 -- -- 26
2019-06-17 13:00:00 25.3 6 Sur 27 Sur 0 -- -- 25
2019-06-17 12:00:00 24.1 11 Sur 24 Sur 0 -- -- 25
2019-06-17 11:00:00 21.5 4 Nordeste 11 Este 0 -- -- 35
2019-06-17 10:00:00 18.5 2 Este 5 Este 0 -- -- 42
2019-06-17 09:00:00 14.5 0 Calma 3 Sur 0 -- -- 52
2019-06-17 08:00:00 7.9 0 Calma 4 Sudoeste 0 -- -- 74
2019-06-17 07:00:00 4.9 0 Calma 8 Sur 0 -- -- 79
2019-06-17 06:00:00 5.2 2 Sudoeste 5 Oeste 0 -- -- 79
2019-06-17 05:00:00 6 2 Sudoeste 5 Noroeste 0 -- -- 75
2019-06-17 04:00:00 7.2 3 Oeste 4 Sudoeste 0 -- -- 71
2019-06-17 03:00:00 8.2 0 Calma 5 Sudoeste 0 -- -- 69
2019-06-17 02:00:00 9 3 Sudoeste 6 Oeste 0 -- -- 61
2019-06-17 01:00:00 9.8 2 Oeste 6 Oeste 0 -- -- 55
2019-06-17 00:00:00 10.1 0 Calma 7 Oeste 0 -- -- 58
2019-06-16 23:00:00 12.2 0 Calma 5 Sudoeste 0 -- -- 55
2019-06-16 22:00:00 16.1 0 Calma 4 Noroeste 0 -- -- 48
2019-06-16 21:00:00 20.3 2 Oeste 13 Sudoeste 0 -- -- 41
2019-06-16 20:00:00 23 0 Calma 17 Sudoeste 0 -- -- 26
2019-06-16 19:00:00 24.8 6 Oeste 17 Sudeste 0 -- -- 21
2019-06-16 18:00:00 25.4 9 Sur 22 Sudeste 0 -- -- 22
2019-06-16 17:00:00 26.4 6 Sur 22 Sudeste 0 -- -- 21
2019-06-16 16:00:00 25.6 9 Sudeste 24 Sudeste 0 -- -- 24
2019-06-16 15:00:00 25.1 10 Sudeste 24 Sudeste 0 -- -- 23
2019-06-16 14:00:00 23.9 4 Sudeste 16 Sudeste 0 -- -- 28
2019-06-16 13:00:00 23 5 Sudoeste 14 Norte 0 -- -- 25
2019-06-16 12:00:00 21.8 5 Este 11 Nordeste 0 -- -- 30
2019-06-16 11:00:00 19.6 4 Nordeste 10 Nordeste 0 -- -- 39
2019-06-16 10:00:00 16.1 2 Sudeste 5 Noroeste 0 -- -- 43
2019-06-16 09:00:00 12.2 2 Nordeste 5 Sudeste 0 -- -- 58
2019-06-16 08:00:00 6.2 0 Calma 4 Oeste 0 -- -- 82
2019-06-16 07:00:00 2.4 2 Sudoeste 4 Sudoeste 0 -- -- 89
2019-06-16 06:00:00 2.5 2 Sudoeste 5 Sudoeste 0 -- -- 88
2019-06-16 05:00:00 3.2 2 Sudoeste 5 Oeste 0 -- -- 85
2019-06-16 04:00:00 3.6 2 Sudoeste 4 Oeste 0 -- -- 83
2019-06-16 03:00:00 4.3 0 Calma 4 Sudoeste 0 -- -- 78
2019-06-16 02:00:00 5 3 Sudoeste 4 Oeste 0 -- -- 74
2019-06-16 01:00:00 6.3 0 Calma 3 Oeste 0 -- -- 69
2019-06-16 00:00:00 7.8 0 Calma 4 Oeste 0 -- -- 64
2019-06-15 23:00:00 9.7 2 Sudoeste 6 Sur 0 -- -- 58
2019-06-15 22:00:00 12.9 3 Oeste 9 Oeste 0 -- -- 48
2019-06-15 21:00:00 16.8 4 Oeste 17 Norte 0 -- -- 35
2019-06-15 20:00:00 21.2 6 Noroeste 14 Noroeste 0 -- -- 30
2019-06-15 19:00:00 22.1 6 Noroeste 17 Oeste 0 -- -- 30
2019-06-15 18:00:00 22.4 5 Noroeste 17 Sudoeste 0 -- -- 32
2019-06-15 17:00:00 20.5 3 Noroeste 10 Oeste 0 -- -- 36
2019-06-15 16:00:00 21.8 6 Este 14 Nordeste 0 -- -- 32
2019-06-15 15:00:00 21.2 5 Norte 17 Nordeste 0 -- -- 34
2019-06-15 14:00:00 19.8 4 Sudoeste 15 Norte 0 -- -- 36
2019-06-15 13:00:00 18.3 7 Nordeste 16 Este 0 -- -- 36
2019-06-15 12:00:00 17.7 6 Sudeste 13 Sudeste 0 -- -- 38
2019-06-15 11:00:00 15.2 5 Norte 12 Norte 0 -- -- 47
2019-06-15 10:00:00 13.9 6 Este 13 Sudeste 0 -- -- 46
2019-06-15 09:00:00 11.3 3 Sur 9 Sur 0 -- -- 57
2019-06-15 08:00:00 6.7 3 Sudoeste 8 Sur 0 -- -- 76
2019-06-15 07:00:00 5.9 0 Calma 16 Noroeste 0 -- -- 77
2019-06-15 06:00:00 6.9 3 Este 17 Oeste 0 -- -- 74
2019-06-15 05:00:00 6.7 2 Sur 14 Sudoeste 0 -- -- 74
2019-06-15 04:00:00 8.1 5 Sur 24 Oeste 0 -- -- 66
2019-06-15 03:00:00 9.2 9 Oeste 35 Oeste 0 -- -- 62
2019-06-15 02:00:00 10.1 9 Oeste 35 Oeste 0 -- -- 56
2019-06-15 01:00:00 11.1 14 Oeste 37 Oeste 0 -- -- 52
2019-06-15 00:00:00 12.5 7 Oeste 29 Oeste 0 -- -- 48
2019-06-14 23:00:00 13 9 Oeste 29 Oeste 0 -- -- 48
2019-06-14 22:00:00 13.9 8 Oeste 22 Noroeste 0 -- -- 42
2019-06-14 21:00:00 15.8 9 Oeste 23 Noroeste 0 -- -- 36
2019-06-14 20:00:00 20.2 7 Oeste 20 Noroeste 0 -- -- 26
2019-06-14 19:00:00 20.2 7 Oeste 27 Sur 0 -- -- 29
2019-06-14 18:00:00 22.7 5 Sur 27 Sur 0 -- -- 27
2019-06-14 17:00:00 22.9 6 Sudoeste 23 Oeste 0 -- -- 26
2019-06-14 16:00:00 21.9 8 Sur 29 Sur 0 -- -- 25
2019-06-14 15:00:00 21.9 9 Sur 29 Sur 0 -- -- 24
2019-06-14 14:00:00 21.3 8 Sudoeste 26 Oeste 0 -- -- 22
2019-06-14 13:00:00 21.1 8 Sur 21 Sur 0 -- -- 25
2019-06-14 12:00:00 20.8 6 Sur 21 Sur 0 -- -- 23
2019-06-14 11:00:00 19.1 10 Sudeste 24 Sur 0 -- -- 27
2019-06-14 10:00:00 16.2 3 Nordeste 10 Este 0 -- -- 45
2019-06-14 09:00:00 9.5 0 Calma 5 Sudeste 0 -- -- 70
2019-06-14 08:00:00 6 2 Sudoeste 4 Sudoeste 0 -- -- 73
2019-06-14 07:00:00 3.6 0 Calma 8 Sur 0 -- -- 79
2019-06-14 06:00:00 3.6 2 Sudoeste 4 Oeste 0 -- -- 79
2019-06-14 05:00:00 4.2 0 Calma 4 Oeste 0 -- -- 75
2019-06-14 04:00:00 4.8 0 Calma 3 Sudoeste 0 -- -- 69
2019-06-14 03:00:00 6.3 2 Sudoeste 7 Oeste 0 -- -- 60
2019-06-14 02:00:00 8.1 3 Sudoeste 7 Sudoeste 0 -- -- 52
2019-06-14 01:00:00 9.8 2 Oeste 14 Sudeste 0 -- -- 45
2019-06-14 00:00:00 8.9 3 Sudoeste 9 Sur 0 -- -- 46
2019-06-13 23:00:00 8.9 3 Sudoeste 6 Oeste 0 -- -- 58
2019-06-13 22:00:00 11.6 0 Calma 5 Sudoeste 0 -- -- 52
2019-06-13 21:00:00 16.5 3 Oeste 18 Oeste 0 -- -- 38
2019-06-13 20:00:00 18.8 4 Oeste 14 Sur 0 -- -- 31
2019-06-13 19:00:00 23.2 5 Sur 24 Sur 0 -- -- 21
2019-06-13 18:00:00 23.7 5 Sur 25 Sur 0 -- -- 21
2019-06-13 17:00:00 23.5 11 Sur 30 Sur 0 -- -- 23
2019-06-13 16:00:00 22.9 12 Sur 32 Sur 0 -- -- 27
2019-06-13 15:00:00 21.9 9 Sudoeste 35 Sur 0 -- -- 33
2019-06-13 14:00:00 21.1 9 Sur 30 Sudeste 0 -- -- 30
2019-06-13 13:00:00 20.3 9 Sudeste 36 Sudeste 0 -- -- 32
2019-06-13 12:00:00 17.5 7 Nordeste 21 Nordeste 0 -- -- 52
2019-06-13 11:00:00 14.9 5 Nordeste 15 Nordeste 0 -- -- 61
2019-06-13 10:00:00 12.9 3 Nordeste 7 Este 0 -- -- 65
2019-06-13 09:00:00 6.7 0 Calma 5 Sudoeste 0 -- -- 85
2019-06-13 08:00:00 3.9 0 Calma 4 Sur 0 -- -- 87
2019-06-13 07:00:00 0.6 0 Calma 6 Sudoeste 0 -- -- 89
2019-06-13 06:00:00 0.8 0 Calma 3 Oeste 0 -- -- 87
2019-06-13 05:00:00 0.9 2 Sudoeste 4 Sudoeste 0 -- -- 83
2019-06-13 04:00:00 1.5 0 Calma 10 Sur 0 -- -- 81
2019-06-13 03:00:00 2 0 Calma 5 Oeste 0 -- -- 78
2019-06-13 02:00:00 2.4 0 Calma 4 Sudoeste 0 -- -- 76
2019-06-13 01:00:00 3.2 0 Calma 4 Sudoeste 0 -- -- 74
2019-06-13 00:00:00 4.4 0 Calma 4 Oeste 0 -- -- 70
2019-06-12 23:00:00 5.9 0 Calma 4 Oeste 0 -- -- 67
2019-06-12 22:00:00 8.4 0 Calma 4 Sur 0 -- -- 60
2019-06-12 21:00:00 12.7 0 Calma 12 Sudoeste 0 -- -- 49
2019-06-12 20:00:00 18.9 3 Sudoeste 23 Sur 0 -- -- 25
2019-06-12 19:00:00 17.4 4 Sudoeste 17 Sur 0 -- -- 29
2019-06-12 18:00:00 17.6 4 Sudoeste 17 Oeste 0 -- -- 31
2019-06-12 17:00:00 19.9 5 Sudoeste 23 Sur 0 -- -- 27
2019-06-12 16:00:00 18.4 7 Sur 28 Sur 0 -- -- 30
2019-06-12 15:00:00 16.8 10 Sur 24 Sudoeste 0 -- -- 33
2019-06-12 14:00:00 16.6 9 Sur 24 Sur 0 -- -- 35
2019-06-12 13:00:00 16.5 8 Oeste 29 Oeste 0 -- -- 36
2019-06-12 12:00:00 14.8 5 Noroeste 15 Oeste 0 -- -- 36
2019-06-12 11:00:00 14.1 5 Este 14 Este 0 -- -- 44
2019-06-12 10:00:00 10.9 3 Nordeste 8 Este 0 -- -- 52
2019-06-12 09:00:00 7.8 2 Sudeste 5 Sur 0 -- -- 62
2019-06-12 08:00:00 2 0 Calma 4 Sur 0 -- -- 88
2019-06-12 07:00:00 -0.9 0 Calma 5 Sudoeste 0 -- -- 94
2019-06-12 06:00:00 -0.7 2 Sudoeste 5 Sudoeste 0 -- -- 93
2019-06-12 05:00:00 -0.5 2 Sudoeste 6 Sur 0 -- -- 92
2019-06-12 04:00:00 -0.3 0 Calma 4 Sudoeste 0 -- -- 92
2019-06-12 03:00:00 0.1 2 Sudoeste 4 Oeste 0 -- -- 90
2019-06-12 02:00:00 0.7 0 Calma 4 Sudoeste 0 -- -- 88
2019-06-12 01:00:00 1.6 0 Calma 4 Sudoeste 0 -- -- 85
2019-06-12 00:00:00 2.9 0 Calma 4 Sudoeste 0 -- -- 80
2019-06-11 23:00:00 4.9 3 Sudoeste 9 Sur 0 -- -- 72
2019-06-11 22:00:00 7 3 Sudoeste 6 Sudeste 0 -- -- 65
2019-06-11 21:00:00 10.5 0 Calma 16 Norte 0 -- -- 53
2019-06-11 20:00:00 14.9 4 Norte 23 Norte 0 -- -- 35
2019-06-11 19:00:00 15.7 8 Nordeste 24 Nordeste 0 -- -- 31
2019-06-11 18:00:00 15.4 8 Noroeste 22 Nordeste 0 -- -- 36
2019-06-11 17:00:00 14.6 8 Nordeste 24 Norte 0 -- -- 38
2019-06-11 16:00:00 13.1 10 Nordeste 23 Nordeste 0 -- -- 42
2019-06-11 15:00:00 14.6 9 Norte 27 Nordeste 0 -- -- 39
2019-06-11 14:00:00 12.7 6 Norte 23 Noroeste 0 -- -- 51
2019-06-11 13:00:00 11.1 5 Norte 26 Noroeste 0 -- -- 62
2019-06-11 12:00:00 10.5 6 Noroeste 24 Oeste 0 -- -- 58
2019-06-11 11:00:00 8.6 9 Oeste 24 Noroeste 0 -- -- 67
2019-06-11 10:00:00 8.7 8 Noroeste 22 Oeste 0 -- -- 67
2019-06-11 09:00:00 8.3 5 Sudoeste 22 Noroeste 0 -- -- 73
2019-06-11 08:00:00 10 4 Noroeste 16 Oeste 0 -- -- 68
2019-06-11 07:00:00 9 3 Noroeste 17 Norte 0 -- -- 71
2019-06-11 06:00:00 9.4 4 Noroeste 13 Sudoeste 0 -- -- 68
2019-06-11 05:00:00 9.5 2 Oeste 16 Oeste 0 -- -- 62
2019-06-11 04:00:00 11 4 Oeste 19 Oeste 0 -- -- 54
2019-06-11 03:00:00 11 3 Sudoeste 14 Sudoeste 0 -- -- 49
2019-06-11 02:00:00 11.4 4 Oeste 11 Oeste 0 -- -- 46
2019-06-11 01:00:00 12 0 Calma 24 Noroeste 0 -- -- 42
2019-06-11 00:00:00 8.9 4 Oeste 19 Sur 0 -- -- 56
2019-06-10 23:00:00 9.5 3 Sudoeste 8 Sudoeste 0 -- -- 54
2019-06-10 22:00:00 11 2 Oeste 10 Oeste 0 -- -- 52
2019-06-10 21:00:00 15.1 3 Oeste 18 Oeste 0 -- -- 37
2019-06-10 20:00:00 19.7 6 Noroeste 22 Oeste 0 -- -- 27
2019-06-10 19:00:00 20.8 8 Noroeste 26 Oeste 0 -- -- 26
2019-06-10 18:00:00 20.8 8 Noroeste 28 Noroeste 0 -- -- 26
2019-06-10 17:00:00 20 8 Noroeste 28 Noroeste 0 -- -- 29
2019-06-10 16:00:00 19.5 8 Noroeste 27 Oeste 0 -- -- 33
2019-06-10 15:00:00 19.8 7 Noroeste 24 Noroeste 0 -- -- 33
2019-06-10 14:00:00 18.4 8 Noroeste 23 Noroeste 0 -- -- 36
2019-06-10 13:00:00 17.6 7 Norte 23 Norte 0 -- -- 41
2019-06-10 12:00:00 16.3 8 Noroeste 25 Noroeste 0 -- -- 45
2019-06-10 11:00:00 16.1 6 Norte 21 Oeste 0 -- -- 46
2019-06-10 10:00:00 15.1 6 Noroeste 18 Norte 0 -- -- 49
2019-06-10 09:00:00 13.5 6 Norte 15 Norte 0 -- -- 54
2019-06-10 08:00:00 10 3 Sudoeste 10 Sudoeste 0 -- -- 70
2019-06-10 07:00:00 9.6 4 Oeste 17 Sudoeste 0 -- -- 71
2019-06-10 06:00:00 10 4 Sudoeste 21 Sudoeste 0 -- -- 71
2019-06-10 05:00:00 8.1 4 Oeste 13 Oeste 0 -- -- 73
2019-06-10 04:00:00 8.6 2 Sudoeste 13 Sudeste 0 -- -- 70
2019-06-10 03:00:00 11 3 Sudeste 14 Sur 0 -- -- 62
2019-06-10 02:00:00 12.1 3 Sur 17 Noroeste 0 -- -- 58
2019-06-10 01:00:00 12.6 7 Oeste 27 Oeste 0 -- -- 51
2019-06-10 00:00:00 13.7 10 Noroeste 31 Oeste 0 -- -- 46
2019-06-09 23:00:00 14.9 12 Noroeste 32 Noroeste 0 -- -- 41
2019-06-09 22:00:00 16.2 8 Oeste 31 Oeste 0 -- -- 36
2019-06-09 21:00:00 17.8 8 Noroeste 29 Noroeste 0 -- -- 33
2019-06-09 20:00:00 18.9 8 Noroeste 39 Noroeste 0 -- -- 33
2019-06-09 19:00:00 21.1 8 Oeste 23 Oeste 0 -- -- 30
2019-06-09 18:00:00 21.9 9 Noroeste 25 Noroeste 0 -- -- 30
2019-06-09 17:00:00 22.4 8 Noroeste 24 Oeste 0 -- -- 31
2019-06-09 16:00:00 21.8 11 Oeste 25 Norte 0 -- -- 32
2019-06-09 15:00:00 21.2 6 Oeste 23 Noroeste 0 -- -- 33
2019-06-09 14:00:00 21.8 7 Noroeste 17 Noroeste 0 -- -- 34
2019-06-09 13:00:00 18.8 4 Noroeste 15 Noroeste 0 -- -- 38
2019-06-09 12:00:00 20.5 5 Noroeste 19 Oeste 0 -- -- 34
2019-06-09 11:00:00 19.3 3 Este 14 Sudeste 0 -- -- 36
2019-06-09 10:00:00 15.4 4 Nordeste 9 Este 0 -- -- 61
2019-06-09 09:00:00 12.2 0 Calma 5 Sudeste 0 -- -- 61
2019-06-09 08:00:00 6.2 0 Calma 3 Sudoeste 0 -- -- 86
2019-06-09 07:00:00 4.2 0 Calma 4 Sudoeste 0 -- -- 88
2019-06-09 06:00:00 4.5 0 Calma 5 Sudoeste 0 -- -- 87
2019-06-09 05:00:00 4.7 0 Calma 6 Sur 0 -- -- 84
2019-06-09 04:00:00 5.6 0 Calma 4 Oeste 0 -- -- 79
2019-06-09 03:00:00 7 0 Calma 5 Oeste 0 -- -- 71
2019-06-09 02:00:00 9 0 Calma 7 Sur 0 -- -- 66
2019-06-09 01:00:00 10.9 0 Calma 6 Nordeste 0 -- -- 61
2019-06-09 00:00:00 11.7 0 Calma 6 Norte 0 -- -- 56
2019-06-08 23:00:00 11.8 3 Sudoeste 6 Oeste 0 -- -- 59
2019-06-08 22:00:00 13 2 Sudoeste 6 Sur 0 -- -- 56
2019-06-08 21:00:00 17.3 2 Oeste 19 Sudoeste 0 -- -- 49
2019-06-08 20:00:00 20.4 5 Sudoeste 15 Oeste 0 -- -- 30
2019-06-08 19:00:00 21.6 3 Sudoeste 22 Sudoeste 0 -- -- 31
2019-06-08 18:00:00 22.5 4 Sudoeste 26 Sur 0 -- -- 36
2019-06-08 17:00:00 23.1 8 Sur 32 Este 0 -- -- 32
2019-06-08 16:00:00 22 9 Sudeste 31 Sur 0 -- -- 36
2019-06-08 15:00:00 22.3 9 Sudeste 28 Sudeste 0 -- -- 36
2019-06-08 14:00:00 21.2 12 Sudeste 28 Sudeste 0 -- -- 36
2019-06-08 13:00:00 20.1 7 Sudeste 27 Sur 0 -- -- 37
2019-06-08 12:00:00 19.3 8 Sudeste 17 Sudeste 0 -- -- 35
2019-06-08 11:00:00 15.8 3 Norte 9 Norte 0 -- -- 41
2019-06-08 10:00:00 13.2 2 Nordeste 6 Este 0 -- -- 47
2019-06-08 09:00:00 9 0 Calma 4 Noroeste 0 -- -- 65
2019-06-08 08:00:00 2.7 0 Calma 3 Sudoeste 0 -- -- 96
2019-06-08 07:00:00 -0.2 0 Calma 5 Oeste 0 -- -- 95
2019-06-08 06:00:00 -0.2 2 Sudoeste 4 Oeste 0 -- -- 95
2019-06-08 05:00:00 -0.1 2 Sudoeste 4 Oeste 0 -- -- 94
2019-06-08 04:00:00 0.3 2 Sudoeste 4 Sudoeste 0 -- -- 93
2019-06-08 03:00:00 0.8 0 Calma 5 Sudoeste 0 -- -- 92
2019-06-08 02:00:00 1.4 2 Sudoeste 5 Sudoeste 0 -- -- 90
2019-06-08 01:00:00 2.1 2 Sudoeste 4 Sudoeste 0 -- -- 87
2019-06-08 00:00:00 3.6 0 Calma 7 Sur 0 -- -- 82
2019-06-07 23:00:00 5.1 4 Sudoeste 10 Sudoeste 0 -- -- 75
2019-06-07 22:00:00 7 0 Calma 8 Noroeste 0 -- -- 72
2019-06-07 21:00:00 10.6 3 Oeste 13 Oeste 0 -- -- 57
2019-06-07 20:00:00 16.6 5 Oeste 16 Oeste 0 -- -- 32
2019-06-07 19:00:00 16.9 3 Sudoeste 20 Oeste 0 -- -- 32
2019-06-07 18:00:00 15.9 6 Noroeste 22 Oeste 0 -- -- 36
2019-06-07 17:00:00 15.4 10 Oeste 28 Norte 0 -- -- 38
2019-06-07 16:00:00 14.4 5 Noroeste 18 Oeste 0 -- -- 40
2019-06-07 15:00:00 13 8 Noroeste 23 Oeste 0 -- -- 47
2019-06-07 14:00:00 11.3 5 Noroeste 28 Sur 0 -- -- 49
2019-06-07 13:00:00 9.8 4 Oeste 24 Sudoeste 0 -- -- 58
2019-06-07 12:00:00 8.4 4 Oeste 18 Este 0 -- -- 60
2019-06-07 11:00:00 6.8 9 Sudeste 19 Sudeste 0 -- -- 68
2019-06-07 10:00:00 5.9 10 Nordeste 29 Noroeste 0 -- -- 68
2019-06-07 09:00:00 5.4 9 Oeste 34 Norte 0 -- -- 70
2019-06-07 08:00:00 5 10 Oeste 35 Noroeste 0 -- -- 72
2019-06-07 07:00:00 5 16 Oeste 45 Oeste 0.2 -- -- 76
2019-06-07 06:00:00 5 17 Oeste 45 Oeste 0 -- -- 75
2019-06-07 05:00:00 5 19 Oeste 40 Oeste 1.2 -- -- 81
2019-06-07 04:00:00 5.7 9 Oeste 31 Oeste 0.6 -- -- 84
2019-06-07 03:00:00 6.2 10 Oeste 40 Noroeste 0.8 -- -- 83
2019-06-07 02:00:00 8.6 14 Oeste 38 Oeste 0.8 -- -- 83
2019-06-07 01:00:00 12 8 Sudoeste 39 Oeste 0 -- -- 64
2019-06-07 00:00:00 13.4 8 Sudoeste 30 Sudoeste 0 -- -- 51
2019-06-06 23:00:00 13.4 5 Oeste 31 Noroeste 0 -- -- 44
2019-06-06 22:00:00 13.8 8 Sudoeste 36 Sur 0 -- -- 42
2019-06-06 21:00:00 14.6 5 Oeste 31 Oeste 0 -- -- 39
2019-06-06 20:00:00 17.7 8 Sudoeste 35 Sudoeste 0 -- -- 34
2019-06-06 19:00:00 18.4 10 Sudoeste 38 Sudoeste 0 -- -- 33
2019-06-06 18:00:00 18.7 12 Sudoeste 39 Sur 0 -- -- 32
2019-06-06 17:00:00 19.4 12 Sur 37 Sudeste 0 -- -- 29
2019-06-06 16:00:00 18.2 16 Sur 46 Sur 0 -- -- 30
2019-06-06 15:00:00 18.3 13 Sur 46 Sur 0 -- -- 30
2019-06-06 14:00:00 17.5 10 Sur 30 Sudeste 0 -- -- 28
2019-06-06 13:00:00 16.1 10 Sur 33 Sur 0 -- -- 29
2019-06-06 12:00:00 16.1 11 Sur 27 Sur 0 -- -- 29
2019-06-06 11:00:00 14.2 5 Sudeste 13 Sudeste 0 -- -- 41
2019-06-06 10:00:00 11.5 5 Nordeste 11 Norte 0 -- -- 56
2019-06-06 09:00:00 8.6 2 Este 6 Sudeste 0 -- -- 67
2019-06-06 08:00:00 3.2 0 Calma 3 Sur 0 -- -- 90
2019-06-06 07:00:00 1 0 Calma 4 Oeste 0 -- -- 91
2019-06-06 06:00:00 1.9 0 Calma 3 Oeste 0 -- -- 90
2019-06-06 05:00:00 3.1 0 Calma 5 Sur 0 -- -- 85
2019-06-06 04:00:00 4.6 2 Sudoeste 12 Oeste 0 -- -- 78
2019-06-06 03:00:00 5.6 2 Oeste 8 Oeste 0 -- -- 75
2019-06-06 02:00:00 7.4 2 Sur 16 Sur 0 -- -- 68
2019-06-06 01:00:00 7.2 3 Sur 9 Sur 0 -- -- 69
2019-06-06 00:00:00 6.4 0 Calma 8 Sur 0 -- -- 74
2019-06-05 23:00:00 7.8 0 Calma 9 Noroeste 0 -- -- 71
2019-06-05 22:00:00 9.6 3 Noroeste 13 Oeste 0 -- -- 62
2019-06-05 21:00:00 12 4 Oeste 15 Oeste 0 -- -- 45
2019-06-05 20:00:00 13.6 4 Noroeste 25 Oeste 0 -- -- 38
2019-06-05 19:00:00 15.1 8 Oeste 26 Noroeste 0 -- -- 36
2019-06-05 18:00:00 14.6 5 Noroeste 26 Sudoeste 0.2 -- -- 40
2019-06-05 17:00:00 14.1 4 Noroeste 25 Oeste 0 -- -- 41
2019-06-05 16:00:00 14 5 Noroeste 29 Oeste 0 -- -- 43
2019-06-05 15:00:00 13.7 10 Oeste 28 Sudoeste 0.2 -- -- 45
2019-06-05 14:00:00 11.1 7 Noroeste 34 Sudoeste 0 -- -- 56
2019-06-05 13:00:00 10.4 8 Oeste 31 Oeste 0 -- -- 58
2019-06-05 12:00:00 10.8 4 Noroeste 30 Noroeste 0.2 -- -- 62
2019-06-05 11:00:00 8 9 Oeste 36 Oeste 0.2 -- -- 80
2019-06-05 10:00:00 5.7 3 Nordeste 22 Oeste 0.4 -- -- 87
2019-06-05 09:00:00 5 7 Oeste 39 Oeste 3.2 -- -- 90
2019-06-05 08:00:00 6.1 6 Oeste 25 Noroeste 0.8 -- -- 85
2019-06-05 07:00:00 6.5 9 Oeste 29 Sudoeste 0.2 -- -- 82
2019-06-05 06:00:00 7.4 10 Oeste 32 Oeste 0 -- -- 79
2019-06-05 05:00:00 7.7 3 Sudeste 32 Oeste 0 -- -- 80
2019-06-05 04:00:00 9.5 13 Oeste 43 Oeste 0 -- -- 69
2019-06-05 03:00:00 11.8 13 Oeste 32 Oeste 0 -- -- 66
2019-06-05 02:00:00 12.9 9 Oeste 27 Oeste 0 -- -- 66
2019-06-05 01:00:00 13.2 6 Oeste 16 Oeste 0 -- -- 69
2019-06-05 00:00:00 13.2 3 Sudoeste 12 Oeste 0 -- -- 69
2019-06-04 23:00:00 13.8 6 Oeste 12 Sudoeste 0 -- -- 68
2019-06-04 22:00:00 14.8 2 Sur 27 Oeste 0 -- -- 64
2019-06-04 21:00:00 16.7 10 Oeste 36 Oeste 0 -- -- 58
2019-06-04 20:00:00 19.1 5 Oeste 22 Oeste 0 -- -- 46
2019-06-04 19:00:00 20.6 9 Oeste 26 Noroeste 0 -- -- 42
2019-06-04 18:00:00 22.9 7 Oeste 19 Oeste 0 -- -- 40
2019-06-04 17:00:00 22.8 9 Oeste 33 Sudeste 0 -- -- 38
2019-06-04 16:00:00 24.9 12 Sur 35 Sudeste 0 -- -- 34
2019-06-04 15:00:00 25.8 7 Sur 27 Sur 0 -- -- 33
2019-06-04 14:00:00 24.5 8 Sudoeste 32 Oeste 0 -- -- 30
2019-06-04 13:00:00 24.4 7 Sudoeste 31 Oeste 0 -- -- 30
2019-06-04 12:00:00 23.7 8 Sudoeste 32 Sur 0 -- -- 29
2019-06-04 11:00:00 22.8 5 Sur 26 Sur 0 -- -- 33
2019-06-04 10:00:00 19 5 Nordeste 12 Norte 0 -- -- 48
2019-06-04 09:00:00 15.8 4 Este 8 Este 0 -- -- 49
2019-06-04 08:00:00 10.6 0 Calma 9 Noroeste 0 -- -- 71
2019-06-04 07:00:00 7.8 0 Calma 10 Sudoeste 0 -- -- 73
2019-06-04 06:00:00 7.7 2 Sur 8 Oeste 0 -- -- 71
2019-06-04 05:00:00 7.4 0 Calma 7 Sur 0 -- -- 72
2019-06-04 04:00:00 8.3 0 Calma 9 Sur 0 -- -- 68
2019-06-04 03:00:00 9 0 Calma 5 Sudeste 0 -- -- 64
2019-06-04 02:00:00 10 0 Calma 4 Sudoeste 0 -- -- 59
2019-06-04 01:00:00 11.1 0 Calma 5 Oeste 0 -- -- 57
2019-06-04 00:00:00 12.6 2 Oeste 6 Sur 0 -- -- 50
2019-06-03 23:00:00 14 3 Sur 7 Sur 0 -- -- 47
2019-06-03 22:00:00 16.7 0 Calma 9 Sur 0 -- -- 41
2019-06-03 21:00:00 21.4 2 Oeste 23 Sudoeste 0 -- -- 34
2019-06-03 20:00:00 26.2 4 Sudoeste 19 Oeste 0 -- -- 21
2019-06-03 19:00:00 28.1 7 Sudoeste 27 Oeste 0 -- -- 19
2019-06-03 18:00:00 28.6 8 Sudoeste 24 Sudoeste 0 -- -- 20
2019-06-03 17:00:00 29.2 7 Sudoeste 25 Sur 0 -- -- 20
2019-06-03 16:00:00 28.6 9 Sudoeste 26 Sudeste 0 -- -- 22
2019-06-03 15:00:00 28.5 7 Sudoeste 26 Oeste 0 -- -- 24
2019-06-03 14:00:00 27.8 12 Sur 24 Sur 0 -- -- 28
2019-06-03 13:00:00 27.7 6 Sudoeste 18 Oeste 0 -- -- 28
2019-06-03 12:00:00 25.4 9 Este 16 Este 0 -- -- 33
2019-06-03 11:00:00 22.1 4 Este 12 Nordeste 0 -- -- 43
2019-06-03 10:00:00 18.9 0 Calma 4 Norte 0 -- -- 46
2019-06-03 09:00:00 15.4 0 Calma 4 Este 0 -- -- 62
2019-06-03 08:00:00 10.5 0 Calma 3 Sudoeste 0 -- -- 82
2019-06-03 07:00:00 8.1 0 Calma 3 Oeste 0 -- -- 82
2019-06-03 06:00:00 8.7 0 Calma 4 Oeste 0 -- -- 78
2019-06-03 05:00:00 9.5 2 Sudoeste 5 Sudoeste 0 -- -- 75
2019-06-03 04:00:00 10.8 3 Sudoeste 4 Sudoeste 0 -- -- 72
2019-06-03 03:00:00 12.2 3 Sudoeste 13 Sudoeste 0 -- -- 63
2019-06-03 02:00:00 11.3 3 Sudoeste 10 Sudoeste 0 -- -- 70
2019-06-03 01:00:00 11.5 3 Sudoeste 6 Sur 0 -- -- 74
2019-06-03 00:00:00 12.2 0 Calma 8 Sur 0 -- -- 78
2019-06-02 23:00:00 13.7 2 Sudoeste 5 Sudoeste 0 -- -- 77
2019-06-02 22:00:00 15.5 2 Sudoeste 8 Sur 0 -- -- 75
2019-06-02 21:00:00 18.3 3 Sudoeste 26 Noroeste 0 -- -- 65
2019-06-02 20:00:00 23 0 Calma 8 Oeste 0 -- -- 49
2019-06-02 19:00:00 25.3 2 Oeste 8 Oeste 0 -- -- 42
2019-06-02 18:00:00 28.1 3 Norte 12 Norte 0 -- -- 29
2019-06-02 17:00:00 29.7 4 Oeste 14 Sur 0 -- -- 24
2019-06-02 16:00:00 28.1 4 Sur 17 Sur 0 -- -- 26
2019-06-02 15:00:00 27.3 6 Sudoeste 19 Oeste 0 -- -- 28
2019-06-02 14:00:00 28 8 Noroeste 24 Norte 0 -- -- 25
2019-06-02 13:00:00 27.6 5 Nordeste 18 Sudeste 0 -- -- 27
2019-06-02 12:00:00 24.3 3 Nordeste 7 Nordeste 0 -- -- 35
2019-06-02 11:00:00 22 2 Este 7 Este 0 -- -- 39
2019-06-02 10:00:00 18.6 3 Nordeste 5 Este 0 -- -- 48
2019-06-02 09:00:00 15.6 0 Calma 5 Sudeste 0 -- -- 57
2019-06-02 08:00:00 9.4 0 Calma 4 Oeste 0 -- -- 80
2019-06-02 07:00:00 7.3 0 Calma 3 Oeste 0 -- -- 79
2019-06-02 06:00:00 7.1 0 Calma 4 Sudoeste 0 -- -- 81
2019-06-02 05:00:00 7.5 2 Sudoeste 4 Sudoeste 0 -- -- 77
2019-06-02 04:00:00 8.6 0 Calma 6 Oeste 0 -- -- 72
2019-06-02 03:00:00 9.3 0 Calma 5 Sur 0 -- -- 70
2019-06-02 02:00:00 9.8 2 Oeste 8 Sur 0 -- -- 66
2019-06-02 01:00:00 10.4 3 Sudoeste 5 Oeste 0 -- -- 63
2019-06-02 00:00:00 11.5 0 Calma 9 Oeste 0 -- -- 60
2019-06-01 23:00:00 13.3 0 Calma 11 Sur 0 -- -- 54
2019-06-01 22:00:00 15.9 0 Calma 6 Sur 0 -- -- 48
2019-06-01 21:00:00 20.8 2 Oeste 9 Oeste 0 -- -- 41
2019-06-01 20:00:00 28.6 2 Noroeste 13 Sudoeste 0 -- -- 30
2019-06-01 19:00:00 30.2 5 Noroeste 16 Noroeste 0 -- -- 15
2019-06-01 18:00:00 29.8 6 Oeste 19 Oeste 0 -- -- 16
2019-06-01 17:00:00 29.7 6 Oeste 18 Oeste 0 -- -- 18
2019-06-01 16:00:00 29.7 5 Noroeste 17 Sudoeste 0 -- -- 17
2019-06-01 15:00:00 29 4 Sur 18 Nordeste 0 -- -- 22
2019-06-01 14:00:00 27.2 6 Este 18 Nordeste 0 -- -- 31
2019-06-01 13:00:00 25.1 5 Nordeste 13 Norte 0 -- -- 36
2019-06-01 12:00:00 23.3 4 Nordeste 10 Este 0 -- -- 34
2019-06-01 11:00:00 20.7 4 Nordeste 9 Norte 0 -- -- 36
2019-06-01 10:00:00 17.8 3 Nordeste 5 Nordeste 0 -- -- 43
2019-06-01 09:00:00 14.4 2 Sudeste 4 Este 0 -- -- 56
2019-06-01 08:00:00 8.3 0 Calma 3 Sudoeste 0 -- -- 80
2019-06-01 07:00:00 5 0 Calma 4 Sudoeste 0 -- -- 84
2019-06-01 06:00:00 5.6 2 Sudoeste 4 Sudoeste 0 -- -- 81
2019-06-01 05:00:00 6 2 Sudoeste 5 Oeste 0 -- -- 79
2019-06-01 04:00:00 7.3 0 Calma 5 Oeste 0 -- -- 75
2019-06-01 03:00:00 7.4 2 Sudoeste 10 Sudeste 0 -- -- 72
2019-06-01 02:00:00 8.4 2 Sudoeste 4 Sudoeste 0 -- -- 68
2019-06-01 01:00:00 8.9 3 Sudoeste 4 Oeste 0 -- -- 66
2019-06-01 00:00:00 9.8 0 Calma 3 Oeste 0 -- -- 60
2019-05-31 23:00:00 12.1 0 Calma 5 Oeste 0 -- -- 55
2019-05-31 22:00:00 15.3 3 Sudoeste 8 Oeste 0 -- -- 44
2019-05-31 21:00:00 20.7 3 Sur 10 Oeste 0 -- -- 36
2019-05-31 20:00:00 28 2 Norte 8 Nordeste 0 -- -- 31
2019-05-31 19:00:00 29.2 3 Noroeste 10 Noroeste 0 -- -- 23
2019-05-31 18:00:00 29 3 Norte 13 Este 0 -- -- 24
2019-05-31 17:00:00 28.3 4 Nordeste 18 Sudeste 0 -- -- 24
2019-05-31 16:00:00 28.4 6 Este 17 Nordeste 0 -- -- 24
2019-05-31 15:00:00 27.4 5 Sudeste 14 Este 0 -- -- 26
2019-05-31 14:00:00 26.4 6 Nordeste 18 Este 0 -- -- 28
2019-05-31 13:00:00 24.9 4 Nordeste 13 Norte 0 -- -- 31
2019-05-31 12:00:00 22.5 4 Norte 9 Nordeste 0 -- -- 36
2019-05-31 11:00:00 20.8 4 Nordeste 8 Este 0 -- -- 37
2019-05-31 10:00:00 18.2 3 Este 6 Este 0 -- -- 46
2019-05-31 09:00:00 14 2 Nordeste 3 Este 0 -- -- 56
2019-05-31 08:00:00 7.6 0 Calma 3 Sudoeste 0 -- -- 82
2019-05-31 07:00:00 4.5 2 Sudoeste 4 Sudoeste 0 -- -- 85
2019-05-31 06:00:00 5.2 3 Sudoeste 4 Sudoeste 0 -- -- 81
2019-05-31 05:00:00 5 2 Sudoeste 4 Sudoeste 0 -- -- 80
2019-05-31 04:00:00 5.5 0 Calma 4 Sudoeste 0 -- -- 77
2019-05-31 03:00:00 6.4 2 Sudoeste 4 Oeste 0 -- -- 72
2019-05-31 02:00:00 7.3 2 Oeste 6 Oeste 0 -- -- 69
2019-05-31 01:00:00 8.4 2 Oeste 5 Noroeste 0 -- -- 68
2019-05-31 00:00:00 9 0 Calma 5 Sudoeste 0 -- -- 65
2019-05-30 23:00:00 10.9 3 Sudoeste 5 Sudoeste 0 -- -- 60
2019-05-30 22:00:00 13.6 2 Sudoeste 6 Sudoeste 0 -- -- 52
2019-05-30 21:00:00 18.5 3 Sudoeste 6 Sudoeste 0 -- -- 39
2019-05-30 20:00:00 26.2 4 Nordeste 14 Nordeste 0 -- -- 22
2019-05-30 19:00:00 27.2 3 Nordeste 17 Nordeste 0 -- -- 21
2019-05-30 18:00:00 27 4 Norte 17 Este 0 -- -- 22
2019-05-30 17:00:00 26.7 5 Noroeste 17 Este 0 -- -- 23
2019-05-30 16:00:00 26.2 6 Nordeste 18 Este 0 -- -- 25
2019-05-30 15:00:00 25.8 6 Este 16 Este 0 -- -- 27
2019-05-30 14:00:00 24.9 5 Nordeste 14 Este 0 -- -- 28
2019-05-30 13:00:00 23.7 5 Nordeste 13 Este 0 -- -- 25
2019-05-30 12:00:00 22.5 4 Nordeste 8 Sur 0 -- -- 31
2019-05-30 11:00:00 20.2 3 Sudeste 7 Este 0 -- -- 34
2019-05-30 10:00:00 16.3 0 Calma 4 Sudeste 0 -- -- 46
2019-05-30 09:00:00 12 0 Calma 4 Este 0 -- -- 63
2019-05-30 08:00:00 5.8 0 Calma 4 Oeste 0 -- -- 88
2019-05-30 07:00:00 2.5 0 Calma 5 Sudoeste 0 -- -- 91
2019-05-30 06:00:00 2.6 2 Sudoeste 5 Sudoeste 0 -- -- 90
2019-05-30 05:00:00 2.9 0 Calma 3 Sudoeste 0 -- -- 89
2019-05-30 04:00:00 3.6 0 Calma 4 Oeste 0 -- -- 87
2019-05-30 03:00:00 4.3 0 Calma 4 Sudoeste 0 -- -- 86
2019-05-30 02:00:00 5.2 2 Sudoeste 5 Oeste 0 -- -- 81
2019-05-30 01:00:00 6.5 2 Oeste 7 Oeste 0 -- -- 78
2019-05-30 00:00:00 7.2 3 Sudoeste 6 Sudoeste 0 -- -- 73
2019-05-29 23:00:00 9.2 0 Calma 6 Sudoeste 0 -- -- 71
2019-05-29 22:00:00 12.7 4 Sudoeste 12 Sur 0 -- -- 61
2019-05-29 21:00:00 15.9 3 Noroeste 11 Noroeste 0 -- -- 49
2019-05-29 20:00:00 20.8 5 Oeste 19 Noroeste 0 -- -- 37
2019-05-29 19:00:00 22 4 Norte 22 Oeste 0 -- -- 33
2019-05-29 18:00:00 22.2 5 Noroeste 23 Noroeste 0 -- -- 34
2019-05-29 17:00:00 21.8 8 Noroeste 21 Oeste 0 -- -- 35
2019-05-29 16:00:00 21.8 4 Nordeste 24 Sudeste 0 -- -- 35
2019-05-29 15:00:00 21.2 9 Sur 27 Sudeste 0 -- -- 34
2019-05-29 14:00:00 19.9 8 Sudeste 24 Sudeste 0 -- -- 37
2019-05-29 13:00:00 18.9 8 Sudeste 32 Sudeste 0 -- -- 38
2019-05-29 12:00:00 18.3 10 Sur 30 Sur 0 -- -- 39
2019-05-29 11:00:00 17.2 5 Sudeste 18 Sudeste 0 -- -- 40
2019-05-29 10:00:00 14.5 3 Nordeste 8 Este 0 -- -- 44
2019-05-29 09:00:00 11.6 0 Calma 6 Sur 0 -- -- 52
2019-05-29 08:00:00 6.8 0 Calma 9 Sudeste 0 -- -- 78
2019-05-29 07:00:00 3.8 4 Sur 11 Sudeste 0 -- -- 84
2019-05-29 06:00:00 2.4 3 Oeste 6 Oeste 0 -- -- 91
2019-05-29 05:00:00 2.4 2 Oeste 6 Oeste 0 -- -- 90
2019-05-29 04:00:00 2.7 0 Calma 5 Oeste 0 -- -- 88
2019-05-29 03:00:00 2.8 2 Oeste 6 Oeste 0 -- -- 88
2019-05-29 02:00:00 3.6 0 Calma 3 Oeste 0 -- -- 86
2019-05-29 01:00:00 4.5 0 Calma 6 Oeste 0 -- -- 85
2019-05-29 00:00:00 5.4 0 Calma 5 Oeste 0 -- -- 81
2019-05-28 23:00:00 7 2 Sudoeste 5 Sur 0 -- -- 75
2019-05-28 22:00:00 9.6 0 Calma 5 Oeste 0 -- -- 65
2019-05-28 21:00:00 13.1 2 Norte 18 Norte 0 -- -- 52
2019-05-28 20:00:00 17.6 7 Nordeste 22 Nordeste 0 -- -- 36
2019-05-28 19:00:00 17.9 10 Norte 26 Norte 0 -- -- 36
2019-05-28 18:00:00 19 13 Nordeste 33 Norte 0 -- -- 35
2019-05-28 17:00:00 20.2 6 Norte 21 Noroeste 0 -- -- 32
2019-05-28 16:00:00 19.9 8 Noroeste 22 Oeste 0 -- -- 31
2019-05-28 15:00:00 19.3 7 Noroeste 24 Noroeste 0 -- -- 30
2019-05-28 14:00:00 18.1 10 Noroeste 25 Oeste 0 -- -- 32
2019-05-28 13:00:00 17.1 13 Noroeste 28 Noroeste 0 -- -- 31
2019-05-28 12:00:00 16.7 9 Noroeste 24 Norte 0 -- -- 31
2019-05-28 11:00:00 16.8 4 Norte 23 Oeste 0 -- -- 25
2019-05-28 10:00:00 15.2 9 Nordeste 21 Nordeste 0 -- -- 34
2019-05-28 09:00:00 14.7 7 Este 17 Nordeste 0 -- -- 42
2019-05-28 08:00:00 10.2 0 Calma 11 Sur 0 -- -- 77
2019-05-28 07:00:00 6.5 2 Sur 8 Sudoeste 0 -- -- 89
2019-05-28 06:00:00 6.7 0 Calma 9 Sudoeste 0 -- -- 91
2019-05-28 05:00:00 6.3 0 Calma 6 Nordeste 0 -- -- 93
2019-05-28 04:00:00 5.9 2 Sudoeste 5 Oeste 0 -- -- 93
2019-05-28 03:00:00 6.6 0 Calma 5 Oeste 0 -- -- 90
2019-05-28 02:00:00 6.9 0 Calma 5 Sudoeste 0 -- -- 89
2019-05-28 01:00:00 7.8 2 Sudoeste 4 Oeste 0 -- -- 84
2019-05-28 00:00:00 9.1 0 Calma 4 Sudoeste 0 -- -- 80
2019-05-27 23:00:00 10.3 0 Calma 5 Sudoeste 0 -- -- 77
2019-05-27 22:00:00 12.6 2 Sudoeste 4 Oeste 0 -- -- 69
2019-05-27 21:00:00 17 0 Calma 15 Norte 0 -- -- 55
2019-05-27 20:00:00 20.9 9 Nordeste 22 Nordeste 0 -- -- 40
2019-05-27 19:00:00 22.2 4 Norte 22 Nordeste 0 -- -- 37
2019-05-27 18:00:00 22.5 6 Norte 30 Norte 0 -- -- 37
2019-05-27 17:00:00 19.9 9 Norte 24 Norte 0 -- -- 43
2019-05-27 16:00:00 22.4 6 Noroeste 27 Norte 0 -- -- 36
2019-05-27 15:00:00 22.1 6 Norte 20 Noroeste 0 -- -- 39
2019-05-27 14:00:00 21.4 7 Norte 22 Nordeste 0 -- -- 40
2019-05-27 13:00:00 21.2 8 Norte 24 Norte 0 -- -- 41
2019-05-27 12:00:00 20 10 Nordeste 23 Norte 0 -- -- 41
2019-05-27 11:00:00 18.8 8 Norte 22 Norte 0 -- -- 45
2019-05-27 10:00:00 18.9 6 Nordeste 14 Nordeste 0 -- -- 41
2019-05-27 09:00:00 15.7 2 Sudoeste 10 Sur 0 -- -- 57
2019-05-27 08:00:00 9.1 2 Sudoeste 8 Sudoeste 0 -- -- 82
2019-05-27 07:00:00 8.1 0 Calma 7 Sudoeste 0 -- -- 85
2019-05-27 06:00:00 7.2 0 Calma 6 Sudoeste 0 -- -- 85
2019-05-27 05:00:00 6.4 2 Sudoeste 7 Sudoeste 0 -- -- 83
2019-05-27 04:00:00 5.8 2 Sudoeste 4 Sudoeste 0 -- -- 85
2019-05-27 03:00:00 5.9 3 Sudoeste 4 Sudoeste 0 -- -- 83
2019-05-27 02:00:00 6.1 0 Calma 5 Sudoeste 0 -- -- 83
2019-05-27 01:00:00 7.1 0 Calma 5 Oeste 0 -- -- 79
2019-05-27 00:00:00 8.3 2 Sudoeste 10 Noroeste 0 -- -- 73
2019-05-26 23:00:00 10.1 0 Calma 9 Sur 0 -- -- 66
2019-05-26 22:00:00 11.8 0 Calma 7 Sudoeste 0 -- -- 63
2019-05-26 21:00:00 15.8 3 Oeste 12 Sudoeste 0 -- -- 51
2019-05-26 20:00:00 21.2 3 Oeste 21 Nordeste 0 -- -- 34
2019-05-26 19:00:00 22.4 5 Norte 18 Noroeste 0 -- -- 34
2019-05-26 18:00:00 22.5 5 Noroeste 21 Norte 0 -- -- 37
2019-05-26 17:00:00 21.4 11 Noroeste 28 Norte 0 -- -- 41
2019-05-26 16:00:00 21.1 7 Noroeste 31 Norte 0 -- -- 42
2019-05-26 15:00:00 20.7 9 Norte 29 Norte 0 -- -- 38
2019-05-26 14:00:00 20.3 11 Noroeste 27 Noroeste 0 -- -- 37
2019-05-26 13:00:00 19.5 12 Norte 26 Nordeste 0 -- -- 32
2019-05-26 12:00:00 19.2 9 Norte 19 Norte 0 -- -- 34
2019-05-26 11:00:00 17.7 4 Sudoeste 16 Este 0 -- -- 36
2019-05-26 10:00:00 15 3 Este 6 Este 0 -- -- 43
2019-05-26 09:00:00 11.1 3 Sudeste 9 Sudeste 0 -- -- 52
2019-05-26 08:00:00 5.5 0 Calma 6 Oeste 0 -- -- 78
2019-05-26 07:00:00 2.2 2 Oeste 7 Noroeste 0 -- -- 85
2019-05-26 06:00:00 2.4 0 Calma 5 Norte 0 -- -- 83
2019-05-26 05:00:00 3 2 Sudoeste 8 Oeste 0 -- -- 79
2019-05-26 04:00:00 3.7 2 Sudoeste 7 Nordeste 0 -- -- 74
2019-05-26 03:00:00 4.8 0 Calma 7 Oeste 0 -- -- 71
2019-05-26 02:00:00 6.4 3 Sudoeste 13 Este 0 -- -- 64
2019-05-26 01:00:00 8 4 Sur 16 Sur 0 -- -- 54
2019-05-26 00:00:00 7.3 3 Sudoeste 8 Oeste 0 -- -- 68